sensor_id;sensor_type;location;lat;lon;timestamp;P1;durP1;ratioP1;P2;durP2;ratioP2
69989;SDS011;57331;52.054;5.294;2024-03-08T00:00:12;34.80;;;15.48;;
69989;SDS011;57331;52.054;5.294;2024-03-08T00:02:42;33.42;;;13.63;;
69989;SDS011;57331;52.054;5.294;2024-03-08T00:05:10;41.23;;;14.50;;
69989;SDS011;57331;52.054;5.294;2024-03-08T00:07:38;36.60;;;13.88;;
69989;SDS011;57331;52.054;5.294;2024-03-08T00:10:07;40.35;;;15.23;;
69989;SDS011;57331;52.054;5.294;2024-03-08T00:12:41;33.65;;;13.48;;
69989;SDS011;57331;52.054;5.294;2024-03-08T00:15:11;34.60;;;14.52;;
69989;SDS011;57331;52.054;5.294;2024-03-08T00:17:42;38.40;;;14.37;;
69989;SDS011;57331;52.054;5.294;2024-03-08T00:20:11;28.20;;;11.90;;
69989;SDS011;57331;52.054;5.294;2024-03-08T00:22:40;38.97;;;15.73;;
69989;SDS011;57331;52.054;5.294;2024-03-08T00:25:07;36.00;;;14.35;;
69989;SDS011;57331;52.054;5.294;2024-03-08T00:27:35;36.35;;;13.48;;
69989;SDS011;57331;52.054;5.294;2024-03-08T00:30:03;37.03;;;15.00;;
69989;SDS011;57331;52.054;5.294;2024-03-08T00:32:30;40.58;;;13.98;;
69989;SDS011;57331;52.054;5.294;2024-03-08T00:34:58;42.33;;;16.15;;
69989;SDS011;57331;52.054;5.294;2024-03-08T00:37:25;35.05;;;14.05;;
69989;SDS011;57331;52.054;5.294;2024-03-08T00:39:53;31.15;;;13.13;;
69989;SDS011;57331;52.054;5.294;2024-03-08T00:42:20;31.50;;;14.57;;
69989;SDS011;57331;52.054;5.294;2024-03-08T00:44:47;38.95;;;14.90;;
69989;SDS011;57331;52.054;5.294;2024-03-08T00:47:17;37.30;;;14.60;;
69989;SDS011;57331;52.054;5.294;2024-03-08T00:49:45;38.70;;;14.63;;
69989;SDS011;57331;52.054;5.294;2024-03-08T00:52:13;36.03;;;14.70;;
69989;SDS011;57331;52.054;5.294;2024-03-08T00:54:41;35.80;;;14.53;;
69989;SDS011;57331;52.054;5.294;2024-03-08T00:57:10;34.50;;;14.93;;
69989;SDS011;57331;52.054;5.294;2024-03-08T00:59:38;32.95;;;13.75;;
69989;SDS011;57331;52.054;5.294;2024-03-08T01:02:06;40.28;;;15.10;;
69989;SDS011;57331;52.054;5.294;2024-03-08T01:04:35;38.60;;;14.68;;
69989;SDS011;57331;52.054;5.294;2024-03-08T01:07:02;39.17;;;15.23;;
69989;SDS011;57331;52.054;5.294;2024-03-08T01:09:29;35.13;;;11.95;;
69989;SDS011;57331;52.054;5.294;2024-03-08T01:11:56;39.03;;;13.82;;
69989;SDS011;57331;52.054;5.294;2024-03-08T01:14:24;35.72;;;14.68;;
69989;SDS011;57331;52.054;5.294;2024-03-08T01:16:52;33.33;;;13.60;;
69989;SDS011;57331;52.054;5.294;2024-03-08T01:19:21;29.53;;;13.47;;
69989;SDS011;57331;52.054;5.294;2024-03-08T01:21:50;35.60;;;13.00;;
69989;SDS011;57331;52.054;5.294;2024-03-08T01:24:17;34.47;;;14.70;;
69989;SDS011;57331;52.054;5.294;2024-03-08T01:26:44;35.15;;;13.55;;
69989;SDS011;57331;52.054;5.294;2024-03-08T01:29:14;41.40;;;16.00;;
69989;SDS011;57331;52.054;5.294;2024-03-08T01:31:41;37.43;;;15.23;;
69989;SDS011;57331;52.054;5.294;2024-03-08T01:34:08;34.67;;;14.25;;
69989;SDS011;57331;52.054;5.294;2024-03-08T01:36:36;36.17;;;14.73;;
69989;SDS011;57331;52.054;5.294;2024-03-08T01:39:04;36.50;;;14.25;;
69989;SDS011;57331;52.054;5.294;2024-03-08T01:41:35;40.63;;;15.80;;
69989;SDS011;57331;52.054;5.294;2024-03-08T01:44:02;37.27;;;14.53;;
69989;SDS011;57331;52.054;5.294;2024-03-08T01:46:30;34.35;;;13.95;;
69989;SDS011;57331;52.054;5.294;2024-03-08T01:48:58;41.90;;;15.90;;
69989;SDS011;57331;52.054;5.294;2024-03-08T01:51:27;33.50;;;13.85;;
69989;SDS011;57331;52.054;5.294;2024-03-08T01:53:55;39.10;;;15.43;;
69989;SDS011;57331;52.054;5.294;2024-03-08T01:56:26;38.30;;;15.17;;
69989;SDS011;57331;52.054;5.294;2024-03-08T01:58:54;30.02;;;14.80;;
69989;SDS011;57331;52.054;5.294;2024-03-08T02:01:21;37.03;;;14.38;;
69989;SDS011;57331;52.054;5.294;2024-03-08T02:03:49;38.15;;;14.90;;
69989;SDS011;57331;52.054;5.294;2024-03-08T02:06:17;37.47;;;14.90;;
69989;SDS011;57331;52.054;5.294;2024-03-08T02:08:45;37.80;;;15.30;;
69989;SDS011;57331;52.054;5.294;2024-03-08T02:11:13;36.55;;;14.20;;
69989;SDS011;57331;52.054;5.294;2024-03-08T02:13:42;36.55;;;14.93;;
69989;SDS011;57331;52.054;5.294;2024-03-08T02:16:09;38.92;;;15.30;;
69989;SDS011;57331;52.054;5.294;2024-03-08T02:18:36;40.67;;;16.48;;
69989;SDS011;57331;52.054;5.294;2024-03-08T02:21:06;40.33;;;15.80;;
69989;SDS011;57331;52.054;5.294;2024-03-08T02:23:35;33.10;;;14.23;;
69989;SDS011;57331;52.054;5.294;2024-03-08T02:26:04;38.47;;;15.23;;
69989;SDS011;57331;52.054;5.294;2024-03-08T02:28:32;36.55;;;15.25;;
69989;SDS011;57331;52.054;5.294;2024-03-08T02:31:00;31.35;;;13.55;;
69989;SDS011;57331;52.054;5.294;2024-03-08T02:33:30;33.93;;;14.23;;
69989;SDS011;57331;52.054;5.294;2024-03-08T02:35:59;36.33;;;14.30;;
69989;SDS011;57331;52.054;5.294;2024-03-08T02:38:26;38.38;;;15.63;;
69989;SDS011;57331;52.054;5.294;2024-03-08T02:40:54;38.67;;;15.07;;
69989;SDS011;57331;52.054;5.294;2024-03-08T02:43:22;36.97;;;14.63;;
69989;SDS011;57331;52.054;5.294;2024-03-08T02:45:51;36.47;;;15.73;;
69989;SDS011;57331;52.054;5.294;2024-03-08T02:48:19;36.35;;;15.00;;
69989;SDS011;57331;52.054;5.294;2024-03-08T02:50:48;34.00;;;14.10;;
69989;SDS011;57331;52.054;5.294;2024-03-08T02:53:17;35.15;;;14.68;;
69989;SDS011;57331;52.054;5.294;2024-03-08T02:55:48;36.13;;;14.27;;
69989;SDS011;57331;52.054;5.294;2024-03-08T02:58:16;40.67;;;15.90;;
69989;SDS011;57331;52.054;5.294;2024-03-08T03:00:43;33.17;;;14.63;;
69989;SDS011;57331;52.054;5.294;2024-03-08T03:03:11;39.67;;;17.05;;
69989;SDS011;57331;52.054;5.294;2024-03-08T03:05:39;37.50;;;16.05;;
69989;SDS011;57331;52.054;5.294;2024-03-08T03:08:12;41.72;;;16.05;;
69989;SDS011;57331;52.054;5.294;2024-03-08T03:10:41;39.13;;;15.10;;
69989;SDS011;57331;52.054;5.294;2024-03-08T03:13:09;34.17;;;15.02;;
69989;SDS011;57331;52.054;5.294;2024-03-08T03:15:36;35.50;;;14.40;;
69989;SDS011;57331;52.054;5.294;2024-03-08T03:18:03;34.70;;;14.93;;
69989;SDS011;57331;52.054;5.294;2024-03-08T03:20:35;40.63;;;16.08;;
69989;SDS011;57331;52.054;5.294;2024-03-08T03:23:09;35.70;;;14.87;;
69989;SDS011;57331;52.054;5.294;2024-03-08T03:25:40;34.08;;;14.18;;
69989;SDS011;57331;52.054;5.294;2024-03-08T03:28:08;35.67;;;15.15;;
69989;SDS011;57331;52.054;5.294;2024-03-08T03:30:37;41.90;;;15.77;;
69989;SDS011;57331;52.054;5.294;2024-03-08T03:33:05;31.67;;;14.55;;
69989;SDS011;57331;52.054;5.294;2024-03-08T03:35:34;31.90;;;14.20;;
69989;SDS011;57331;52.054;5.294;2024-03-08T03:38:03;39.92;;;17.13;;
69989;SDS011;57331;52.054;5.294;2024-03-08T03:40:37;38.15;;;15.85;;
69989;SDS011;57331;52.054;5.294;2024-03-08T03:43:05;33.08;;;14.70;;
69989;SDS011;57331;52.054;5.294;2024-03-08T03:45:32;33.08;;;15.57;;
69989;SDS011;57331;52.054;5.294;2024-03-08T03:48:03;35.97;;;15.87;;
69989;SDS011;57331;52.054;5.294;2024-03-08T03:50:33;34.10;;;15.45;;
69989;SDS011;57331;52.054;5.294;2024-03-08T03:53:02;37.50;;;16.45;;
69989;SDS011;57331;52.054;5.294;2024-03-08T03:55:30;45.15;;;15.63;;
69989;SDS011;57331;52.054;5.294;2024-03-08T03:57:57;36.95;;;15.48;;
69989;SDS011;57331;52.054;5.294;2024-03-08T04:00:26;40.73;;;15.67;;
69989;SDS011;57331;52.054;5.294;2024-03-08T04:02:54;40.95;;;16.67;;
69989;SDS011;57331;52.054;5.294;2024-03-08T04:05:25;35.83;;;15.02;;
69989;SDS011;57331;52.054;5.294;2024-03-08T04:07:52;34.75;;;14.93;;
69989;SDS011;57331;52.054;5.294;2024-03-08T04:10:20;39.22;;;17.17;;
69989;SDS011;57331;52.054;5.294;2024-03-08T04:12:47;36.17;;;16.63;;
69989;SDS011;57331;52.054;5.294;2024-03-08T04:15:14;35.95;;;15.50;;
69989;SDS011;57331;52.054;5.294;2024-03-08T04:17:42;35.38;;;16.02;;
69989;SDS011;57331;52.054;5.294;2024-03-08T04:20:09;31.63;;;14.15;;
69989;SDS011;57331;52.054;5.294;2024-03-08T04:22:38;32.60;;;14.98;;
69989;SDS011;57331;52.054;5.294;2024-03-08T04:25:06;36.93;;;15.93;;
69989;SDS011;57331;52.054;5.294;2024-03-08T04:27:33;37.03;;;16.75;;
69989;SDS011;57331;52.054;5.294;2024-03-08T04:30:02;39.70;;;16.73;;
69989;SDS011;57331;52.054;5.294;2024-03-08T04:32:29;34.90;;;15.38;;
69989;SDS011;57331;52.054;5.294;2024-03-08T04:34:59;37.45;;;15.85;;
69989;SDS011;57331;52.054;5.294;2024-03-08T04:37:30;34.63;;;14.93;;
69989;SDS011;57331;52.054;5.294;2024-03-08T04:39:58;33.92;;;14.93;;
69989;SDS011;57331;52.054;5.294;2024-03-08T04:42:26;35.83;;;16.10;;
69989;SDS011;57331;52.054;5.294;2024-03-08T04:44:56;36.00;;;15.88;;
69989;SDS011;57331;52.054;5.294;2024-03-08T04:47:24;38.00;;;16.50;;
69989;SDS011;57331;52.054;5.294;2024-03-08T04:49:52;35.00;;;14.37;;
69989;SDS011;57331;52.054;5.294;2024-03-08T04:52:19;34.42;;;15.55;;
69989;SDS011;57331;52.054;5.294;2024-03-08T04:54:46;36.60;;;16.17;;
69989;SDS011;57331;52.054;5.294;2024-03-08T04:57:13;36.25;;;16.55;;
69989;SDS011;57331;52.054;5.294;2024-03-08T04:59:41;39.75;;;16.63;;
69989;SDS011;57331;52.054;5.294;2024-03-08T05:02:09;32.70;;;15.70;;
69989;SDS011;57331;52.054;5.294;2024-03-08T05:04:37;33.95;;;15.32;;
69989;SDS011;57331;52.054;5.294;2024-03-08T05:07:05;39.33;;;16.02;;
69989;SDS011;57331;52.054;5.294;2024-03-08T05:09:32;38.00;;;15.77;;
69989;SDS011;57331;52.054;5.294;2024-03-08T05:12:00;35.55;;;15.63;;
69989;SDS011;57331;52.054;5.294;2024-03-08T05:14:28;39.77;;;18.90;;
69989;SDS011;57331;52.054;5.294;2024-03-08T05:16:55;41.83;;;16.73;;
69989;SDS011;57331;52.054;5.294;2024-03-08T05:19:24;32.03;;;15.13;;
69989;SDS011;57331;52.054;5.294;2024-03-08T05:21:51;39.92;;;16.25;;
69989;SDS011;57331;52.054;5.294;2024-03-08T05:24:19;38.30;;;15.45;;
69989;SDS011;57331;52.054;5.294;2024-03-08T05:26:46;38.07;;;15.97;;
69989;SDS011;57331;52.054;5.294;2024-03-08T05:29:14;34.92;;;14.27;;
69989;SDS011;57331;52.054;5.294;2024-03-08T05:31:43;40.45;;;16.42;;
69989;SDS011;57331;52.054;5.294;2024-03-08T05:34:16;35.83;;;15.45;;
69989;SDS011;57331;52.054;5.294;2024-03-08T05:36:45;40.33;;;15.90;;
69989;SDS011;57331;52.054;5.294;2024-03-08T05:39:13;36.57;;;15.27;;
69989;SDS011;57331;52.054;5.294;2024-03-08T05:41:41;36.10;;;16.13;;
69989;SDS011;57331;52.054;5.294;2024-03-08T05:44:09;38.08;;;15.95;;
69989;SDS011;57331;52.054;5.294;2024-03-08T05:46:36;39.55;;;17.02;;
69989;SDS011;57331;52.054;5.294;2024-03-08T05:49:04;36.55;;;16.63;;
69989;SDS011;57331;52.054;5.294;2024-03-08T05:51:32;39.70;;;15.67;;
69989;SDS011;57331;52.054;5.294;2024-03-08T05:54:03;35.85;;;15.15;;
69989;SDS011;57331;52.054;5.294;2024-03-08T05:56:32;35.22;;;16.23;;
69989;SDS011;57331;52.054;5.294;2024-03-08T05:58:59;35.63;;;15.88;;
69989;SDS011;57331;52.054;5.294;2024-03-08T06:01:26;31.58;;;14.32;;
69989;SDS011;57331;52.054;5.294;2024-03-08T06:03:54;34.87;;;15.67;;
69989;SDS011;57331;52.054;5.294;2024-03-08T06:06:22;40.10;;;16.13;;
69989;SDS011;57331;52.054;5.294;2024-03-08T06:08:50;36.17;;;15.98;;
69989;SDS011;57331;52.054;5.294;2024-03-08T06:11:18;35.75;;;15.50;;
69989;SDS011;57331;52.054;5.294;2024-03-08T06:13:46;36.85;;;16.95;;
69989;SDS011;57331;52.054;5.294;2024-03-08T06:16:14;37.40;;;15.90;;
69989;SDS011;57331;52.054;5.294;2024-03-08T06:18:41;36.85;;;15.50;;
69989;SDS011;57331;52.054;5.294;2024-03-08T06:21:08;44.50;;;17.10;;
69989;SDS011;57331;52.054;5.294;2024-03-08T06:23:38;41.03;;;16.27;;
69989;SDS011;57331;52.054;5.294;2024-03-08T06:26:07;39.30;;;16.13;;
69989;SDS011;57331;52.054;5.294;2024-03-08T06:28:34;38.30;;;16.10;;
69989;SDS011;57331;52.054;5.294;2024-03-08T06:31:02;36.67;;;16.25;;
69989;SDS011;57331;52.054;5.294;2024-03-08T06:33:29;31.73;;;14.35;;
69989;SDS011;57331;52.054;5.294;2024-03-08T06:36:00;37.05;;;15.10;;
69989;SDS011;57331;52.054;5.294;2024-03-08T06:38:27;40.20;;;16.95;;
69989;SDS011;57331;52.054;5.294;2024-03-08T06:40:54;36.63;;;16.80;;
69989;SDS011;57331;52.054;5.294;2024-03-08T06:43:22;38.03;;;16.15;;
69989;SDS011;57331;52.054;5.294;2024-03-08T06:45:51;33.10;;;14.50;;
69989;SDS011;57331;52.054;5.294;2024-03-08T06:48:19;39.50;;;14.90;;
69989;SDS011;57331;52.054;5.294;2024-03-08T06:50:47;34.13;;;14.55;;
69989;SDS011;57331;52.054;5.294;2024-03-08T06:53:15;36.63;;;16.63;;
69989;SDS011;57331;52.054;5.294;2024-03-08T06:55:47;35.55;;;13.82;;
69989;SDS011;57331;52.054;5.294;2024-03-08T06:58:15;37.35;;;16.27;;
69989;SDS011;57331;52.054;5.294;2024-03-08T07:00:42;33.28;;;15.15;;
69989;SDS011;57331;52.054;5.294;2024-03-08T07:03:10;37.03;;;16.95;;
69989;SDS011;57331;52.054;5.294;2024-03-08T07:05:43;34.70;;;16.87;;
69989;SDS011;57331;52.054;5.294;2024-03-08T07:08:11;36.55;;;16.23;;
69989;SDS011;57331;52.054;5.294;2024-03-08T07:10:42;36.33;;;16.65;;
69989;SDS011;57331;52.054;5.294;2024-03-08T07:13:11;35.08;;;15.13;;
69989;SDS011;57331;52.054;5.294;2024-03-08T07:15:39;41.65;;;16.40;;
69989;SDS011;57331;52.054;5.294;2024-03-08T07:18:07;34.90;;;16.73;;
69989;SDS011;57331;52.054;5.294;2024-03-08T07:20:35;33.45;;;16.15;;
69989;SDS011;57331;52.054;5.294;2024-03-08T07:23:03;27.83;;;12.75;;
69989;SDS011;57331;52.054;5.294;2024-03-08T07:25:30;38.03;;;15.45;;
69989;SDS011;57331;52.054;5.294;2024-03-08T07:27:57;36.97;;;17.55;;
69989;SDS011;57331;52.054;5.294;2024-03-08T07:30:25;38.00;;;15.63;;
69989;SDS011;57331;52.054;5.294;2024-03-08T07:33:22;31.63;;;15.35;;
69989;SDS011;57331;52.054;5.294;2024-03-08T07:35:49;37.70;;;17.02;;
69989;SDS011;57331;52.054;5.294;2024-03-08T07:38:17;41.90;;;18.20;;
69989;SDS011;57331;52.054;5.294;2024-03-08T07:40:47;39.97;;;17.08;;
69989;SDS011;57331;52.054;5.294;2024-03-08T07:43:15;35.03;;;15.80;;
69989;SDS011;57331;52.054;5.294;2024-03-08T07:45:42;33.17;;;15.05;;
69989;SDS011;57331;52.054;5.294;2024-03-08T07:48:10;39.15;;;17.52;;
69989;SDS011;57331;52.054;5.294;2024-03-08T07:50:38;35.53;;;15.65;;
69989;SDS011;57331;52.054;5.294;2024-03-08T07:53:06;38.92;;;15.60;;
69989;SDS011;57331;52.054;5.294;2024-03-08T07:55:34;35.00;;;13.47;;
69989;SDS011;57331;52.054;5.294;2024-03-08T07:58:02;35.30;;;17.92;;
69989;SDS011;57331;52.054;5.294;2024-03-08T08:00:30;32.55;;;15.45;;
69989;SDS011;57331;52.054;5.294;2024-03-08T08:03:00;34.60;;;16.38;;
69989;SDS011;57331;52.054;5.294;2024-03-08T08:05:28;35.03;;;15.60;;
69989;SDS011;57331;52.054;5.294;2024-03-08T08:07:55;37.30;;;17.00;;
69989;SDS011;57331;52.054;5.294;2024-03-08T08:10:22;36.75;;;15.27;;
69989;SDS011;57331;52.054;5.294;2024-03-08T08:12:52;33.33;;;16.02;;
69989;SDS011;57331;52.054;5.294;2024-03-08T08:15:19;30.85;;;15.18;;
69989;SDS011;57331;52.054;5.294;2024-03-08T08:17:47;33.65;;;16.17;;
69989;SDS011;57331;52.054;5.294;2024-03-08T08:20:14;33.73;;;15.53;;
69989;SDS011;57331;52.054;5.294;2024-03-08T08:22:42;33.88;;;15.30;;
69989;SDS011;57331;52.054;5.294;2024-03-08T08:25:14;33.92;;;15.95;;
69989;SDS011;57331;52.054;5.294;2024-03-08T08:27:42;38.47;;;16.35;;
69989;SDS011;57331;52.054;5.294;2024-03-08T08:30:09;37.45;;;16.90;;
69989;SDS011;57331;52.054;5.294;2024-03-08T08:32:38;34.13;;;14.93;;
69989;SDS011;57331;52.054;5.294;2024-03-08T08:35:06;35.78;;;16.48;;
69989;SDS011;57331;52.054;5.294;2024-03-08T08:37:34;35.15;;;16.77;;
69989;SDS011;57331;52.054;5.294;2024-03-08T08:40:03;36.10;;;16.30;;
69989;SDS011;57331;52.054;5.294;2024-03-08T08:42:38;34.25;;;16.42;;
69989;SDS011;57331;52.054;5.294;2024-03-08T08:45:05;43.20;;;17.90;;
69989;SDS011;57331;52.054;5.294;2024-03-08T08:47:43;33.72;;;15.68;;
69989;SDS011;57331;52.054;5.294;2024-03-08T08:50:13;32.10;;;15.60;;
69989;SDS011;57331;52.054;5.294;2024-03-08T08:52:42;30.75;;;14.93;;
69989;SDS011;57331;52.054;5.294;2024-03-08T08:55:10;27.60;;;13.48;;
69989;SDS011;57331;52.054;5.294;2024-03-08T08:57:41;31.83;;;15.80;;
69989;SDS011;57331;52.054;5.294;2024-03-08T09:00:09;37.63;;;17.48;;
69989;SDS011;57331;52.054;5.294;2024-03-08T09:02:41;36.10;;;16.60;;
69989;SDS011;57331;52.054;5.294;2024-03-08T09:05:10;33.10;;;16.10;;
69989;SDS011;57331;52.054;5.294;2024-03-08T09:07:43;32.47;;;15.95;;
69989;SDS011;57331;52.054;5.294;2024-03-08T09:10:11;31.70;;;16.07;;
69989;SDS011;57331;52.054;5.294;2024-03-08T09:12:43;38.28;;;17.02;;
69989;SDS011;57331;52.054;5.294;2024-03-08T09:15:11;35.72;;;17.85;;
69989;SDS011;57331;52.054;5.294;2024-03-08T09:17:39;33.85;;;16.58;;
69989;SDS011;57331;52.054;5.294;2024-03-08T09:20:08;32.55;;;16.10;;
69989;SDS011;57331;52.054;5.294;2024-03-08T09:22:36;29.50;;;14.00;;
69989;SDS011;57331;52.054;5.294;2024-03-08T09:25:04;30.20;;;15.77;;
69989;SDS011;57331;52.054;5.294;2024-03-08T09:27:31;33.92;;;16.70;;
69989;SDS011;57331;52.054;5.294;2024-03-08T09:30:01;33.40;;;17.13;;
69989;SDS011;57331;52.054;5.294;2024-03-08T09:32:28;35.75;;;17.75;;
69989;SDS011;57331;52.054;5.294;2024-03-08T09:34:56;33.50;;;16.13;;
69989;SDS011;57331;52.054;5.294;2024-03-08T09:37:24;34.97;;;17.10;;
69989;SDS011;57331;52.054;5.294;2024-03-08T09:39:51;32.03;;;16.35;;
69989;SDS011;57331;52.054;5.294;2024-03-08T09:42:25;35.22;;;16.10;;
69989;SDS011;57331;52.054;5.294;2024-03-08T09:44:52;32.83;;;14.90;;
69989;SDS011;57331;52.054;5.294;2024-03-08T09:47:19;30.83;;;15.20;;
69989;SDS011;57331;52.054;5.294;2024-03-08T09:49:51;28.15;;;14.20;;
69989;SDS011;57331;52.054;5.294;2024-03-08T09:52:19;33.47;;;15.82;;
69989;SDS011;57331;52.054;5.294;2024-03-08T09:54:47;31.85;;;14.40;;
69989;SDS011;57331;52.054;5.294;2024-03-08T09:57:16;32.03;;;16.38;;
69989;SDS011;57331;52.054;5.294;2024-03-08T09:59:48;28.03;;;14.43;;
69989;SDS011;57331;52.054;5.294;2024-03-08T10:02:16;32.63;;;15.32;;
69989;SDS011;57331;52.054;5.294;2024-03-08T10:04:45;30.42;;;15.55;;
69989;SDS011;57331;52.054;5.294;2024-03-08T10:07:13;29.77;;;15.02;;
69989;SDS011;57331;52.054;5.294;2024-03-08T10:09:40;33.65;;;14.45;;
69989;SDS011;57331;52.054;5.294;2024-03-08T10:12:13;30.27;;;15.17;;
69989;SDS011;57331;52.054;5.294;2024-03-08T10:14:42;31.52;;;15.90;;
69989;SDS011;57331;52.054;5.294;2024-03-08T10:17:09;30.02;;;14.05;;
69989;SDS011;57331;52.054;5.294;2024-03-08T10:19:37;28.58;;;13.65;;
69989;SDS011;57331;52.054;5.294;2024-03-08T10:22:05;28.40;;;14.10;;
69989;SDS011;57331;52.054;5.294;2024-03-08T10:24:33;27.07;;;13.07;;
69989;SDS011;57331;52.054;5.294;2024-03-08T10:27:04;25.73;;;12.85;;
69989;SDS011;57331;52.054;5.294;2024-03-08T10:29:31;25.83;;;12.98;;
69989;SDS011;57331;52.054;5.294;2024-03-08T10:31:58;26.17;;;14.10;;
69989;SDS011;57331;52.054;5.294;2024-03-08T10:34:26;28.70;;;13.48;;
69989;SDS011;57331;52.054;5.294;2024-03-08T10:36:53;25.73;;;13.47;;
69989;SDS011;57331;52.054;5.294;2024-03-08T10:39:34;23.13;;;12.45;;
69989;SDS011;57331;52.054;5.294;2024-03-08T10:42:03;24.27;;;12.73;;
69989;SDS011;57331;52.054;5.294;2024-03-08T10:44:38;25.17;;;12.00;;
69989;SDS011;57331;52.054;5.294;2024-03-08T10:47:17;24.40;;;13.00;;
69989;SDS011;57331;52.054;5.294;2024-03-08T10:49:59;25.40;;;13.10;;
69989;SDS011;57331;52.054;5.294;2024-03-08T10:52:32;26.70;;;13.73;;
69989;SDS011;57331;52.054;5.294;2024-03-08T10:55:01;25.25;;;12.95;;
69989;SDS011;57331;52.054;5.294;2024-03-08T10:57:29;26.58;;;12.90;;
69989;SDS011;57331;52.054;5.294;2024-03-08T10:59:57;23.23;;;11.80;;
69989;SDS011;57331;52.054;5.294;2024-03-08T11:02:25;24.33;;;12.53;;
69989;SDS011;57331;52.054;5.294;2024-03-08T11:04:53;23.48;;;13.10;;
69989;SDS011;57331;52.054;5.294;2024-03-08T11:07:23;22.92;;;12.10;;
69989;SDS011;57331;52.054;5.294;2024-03-08T11:09:54;23.90;;;12.75;;
69989;SDS011;57331;52.054;5.294;2024-03-08T11:12:26;25.67;;;13.40;;
69989;SDS011;57331;52.054;5.294;2024-03-08T11:14:59;24.20;;;13.50;;
69989;SDS011;57331;52.054;5.294;2024-03-08T11:20:08;32.95;;;16.67;;
69989;SDS011;57331;52.054;5.294;2024-03-08T11:23:04;24.63;;;13.18;;
69989;SDS011;57331;52.054;5.294;2024-03-08T11:28:11;20.90;;;11.43;;
69989;SDS011;57331;52.054;5.294;2024-03-08T11:30:43;23.13;;;11.57;;
69989;SDS011;57331;52.054;5.294;2024-03-08T11:33:30;19.17;;;10.27;;
69989;SDS011;57331;52.054;5.294;2024-03-08T11:38:41;21.70;;;11.27;;
69989;SDS011;57331;52.054;5.294;2024-03-08T11:41:10;19.33;;;9.73;;
69989;SDS011;57331;52.054;5.294;2024-03-08T11:43:44;19.27;;;11.00;;
69989;SDS011;57331;52.054;5.294;2024-03-08T11:46:13;22.23;;;12.10;;
69989;SDS011;57331;52.054;5.294;2024-03-08T11:48:41;17.85;;;9.95;;
69989;SDS011;57331;52.054;5.294;2024-03-08T11:51:10;19.48;;;9.57;;
69989;SDS011;57331;52.054;5.294;2024-03-08T11:53:38;18.97;;;9.80;;
69989;SDS011;57331;52.054;5.294;2024-03-08T11:56:12;18.00;;;9.82;;
69989;SDS011;57331;52.054;5.294;2024-03-08T11:58:40;19.48;;;10.10;;
69989;SDS011;57331;52.054;5.294;2024-03-08T12:01:08;15.98;;;9.27;;
69989;SDS011;57331;52.054;5.294;2024-03-08T12:03:40;19.63;;;11.13;;
69989;SDS011;57331;52.054;5.294;2024-03-08T12:06:10;17.13;;;8.83;;
69989;SDS011;57331;52.054;5.294;2024-03-08T12:08:39;21.38;;;10.90;;
69989;SDS011;57331;52.054;5.294;2024-03-08T12:11:06;21.02;;;11.90;;
69989;SDS011;57331;52.054;5.294;2024-03-08T12:13:36;20.83;;;10.50;;
69989;SDS011;57331;52.054;5.294;2024-03-08T12:16:04;20.00;;;10.40;;
69989;SDS011;57331;52.054;5.294;2024-03-08T12:18:35;19.80;;;10.47;;
69989;SDS011;57331;52.054;5.294;2024-03-08T12:21:07;20.23;;;11.43;;
69989;SDS011;57331;52.054;5.294;2024-03-08T12:23:40;17.92;;;9.70;;
69989;SDS011;57331;52.054;5.294;2024-03-08T12:28:42;19.83;;;10.50;;
69989;SDS011;57331;52.054;5.294;2024-03-08T12:31:18;20.10;;;11.53;;
69989;SDS011;57331;52.054;5.294;2024-03-08T12:33:52;21.40;;;11.27;;
69989;SDS011;57331;52.054;5.294;2024-03-08T12:36:23;23.08;;;11.55;;
69989;SDS011;57331;52.054;5.294;2024-03-08T12:38:50;21.65;;;12.07;;
69989;SDS011;57331;52.054;5.294;2024-03-08T12:41:18;17.95;;;10.05;;
69989;SDS011;57331;52.054;5.294;2024-03-08T12:43:46;20.13;;;11.40;;
69989;SDS011;57331;52.054;5.294;2024-03-08T12:46:17;22.52;;;11.48;;
69989;SDS011;57331;52.054;5.294;2024-03-08T12:48:48;20.40;;;11.10;;
69989;SDS011;57331;52.054;5.294;2024-03-08T12:51:16;19.65;;;10.82;;
69989;SDS011;57331;52.054;5.294;2024-03-08T12:53:45;20.02;;;11.02;;
69989;SDS011;57331;52.054;5.294;2024-03-08T12:56:13;19.53;;;11.43;;
69989;SDS011;57331;52.054;5.294;2024-03-08T12:59:00;21.58;;;11.93;;
69989;SDS011;57331;52.054;5.294;2024-03-08T13:01:28;20.17;;;10.25;;
69989;SDS011;57331;52.054;5.294;2024-03-08T13:03:56;21.10;;;11.80;;
69989;SDS011;57331;52.054;5.294;2024-03-08T13:06:24;21.85;;;11.82;;
69989;SDS011;57331;52.054;5.294;2024-03-08T13:08:52;19.85;;;11.00;;
69989;SDS011;57331;52.054;5.294;2024-03-08T13:11:19;19.30;;;9.95;;
69989;SDS011;57331;52.054;5.294;2024-03-08T13:13:47;23.15;;;12.25;;
69989;SDS011;57331;52.054;5.294;2024-03-08T13:16:14;21.02;;;9.90;;
69989;SDS011;57331;52.054;5.294;2024-03-08T13:18:43;20.65;;;11.00;;
69989;SDS011;57331;52.054;5.294;2024-03-08T13:21:11;21.75;;;11.50;;
69989;SDS011;57331;52.054;5.294;2024-03-08T13:23:40;21.50;;;11.60;;
69989;SDS011;57331;52.054;5.294;2024-03-08T13:26:12;22.40;;;12.10;;
69989;SDS011;57331;52.054;5.294;2024-03-08T13:28:42;20.70;;;12.35;;
69989;SDS011;57331;52.054;5.294;2024-03-08T13:31:09;21.48;;;11.45;;
69989;SDS011;57331;52.054;5.294;2024-03-08T13:33:37;21.55;;;12.77;;
69989;SDS011;57331;52.054;5.294;2024-03-08T13:36:06;19.48;;;11.00;;
69989;SDS011;57331;52.054;5.294;2024-03-08T13:38:41;22.88;;;12.63;;
69989;SDS011;57331;52.054;5.294;2024-03-08T13:41:10;22.63;;;12.27;;
69989;SDS011;57331;52.054;5.294;2024-03-08T13:43:38;23.90;;;13.30;;
69989;SDS011;57331;52.054;5.294;2024-03-08T13:46:06;23.50;;;13.32;;
69989;SDS011;57331;52.054;5.294;2024-03-08T13:48:33;23.55;;;12.90;;
69989;SDS011;57331;52.054;5.294;2024-03-08T13:51:00;19.83;;;11.55;;
69989;SDS011;57331;52.054;5.294;2024-03-08T13:53:27;24.58;;;12.80;;
69989;SDS011;57331;52.054;5.294;2024-03-08T13:55:54;21.70;;;12.68;;
69989;SDS011;57331;52.054;5.294;2024-03-08T13:58:23;22.88;;;13.00;;
69989;SDS011;57331;52.054;5.294;2024-03-08T14:00:50;21.30;;;11.95;;
69989;SDS011;57331;52.054;5.294;2024-03-08T14:03:18;24.02;;;14.18;;
69989;SDS011;57331;52.054;5.294;2024-03-08T14:05:45;23.45;;;14.00;;
69989;SDS011;57331;52.054;5.294;2024-03-08T14:08:13;22.02;;;13.20;;
69989;SDS011;57331;52.054;5.294;2024-03-08T14:10:42;23.35;;;12.57;;
69989;SDS011;57331;52.054;5.294;2024-03-08T14:13:09;23.77;;;13.25;;
69989;SDS011;57331;52.054;5.294;2024-03-08T14:15:38;24.77;;;14.00;;
69989;SDS011;57331;52.054;5.294;2024-03-08T14:18:08;25.45;;;13.15;;
69989;SDS011;57331;52.054;5.294;2024-03-08T14:20:35;26.45;;;13.13;;
69989;SDS011;57331;52.054;5.294;2024-03-08T14:23:02;27.92;;;13.52;;
69989;SDS011;57331;52.054;5.294;2024-03-08T14:25:32;20.67;;;12.95;;
69989;SDS011;57331;52.054;5.294;2024-03-08T14:28:00;23.77;;;13.50;;
69989;SDS011;57331;52.054;5.294;2024-03-08T14:30:33;22.83;;;13.07;;
69989;SDS011;57331;52.054;5.294;2024-03-08T14:33:02;25.85;;;13.75;;
69989;SDS011;57331;52.054;5.294;2024-03-08T14:35:29;26.58;;;13.15;;
69989;SDS011;57331;52.054;5.294;2024-03-08T14:37:57;23.10;;;14.02;;
69989;SDS011;57331;52.054;5.294;2024-03-08T14:40:24;23.25;;;14.18;;